createdAt,value
2018-09-10T00:01:27.830Z,95532.38
2018-09-10T00:03:56.331Z,95533.66
2018-09-10T00:06:24.803Z,95532.84
2018-09-10T00:08:53.110Z,95540.20
2018-09-10T00:11:22.015Z,95534.17
2018-09-10T00:13:50.811Z,95529.20
2018-09-10T00:16:19.183Z,95524.73
2018-09-10T00:18:47.649Z,95520.88
2018-09-10T00:21:15.938Z,95527.81
2018-09-10T00:23:44.396Z,95523.22
2018-09-10T00:26:12.846Z,95522.14
2018-09-10T00:28:41.258Z,95524.70
2018-09-10T00:31:09.686Z,95522.94
2018-09-10T00:33:38.010Z,95524.52
2018-09-10T00:36:06.426Z,95516.64
2018-09-10T00:38:34.767Z,95516.55
2018-09-10T00:41:03.094Z,95513.91
2018-09-10T00:43:31.460Z,95507.83
2018-09-10T00:45:59.819Z,95505.90
2018-09-10T00:48:28.189Z,95506.20
2018-09-10T00:50:56.659Z,95510.84
2018-09-10T00:53:25.006Z,95519.37
2018-09-10T00:55:53.362Z,95523.05
2018-09-10T00:58:21.825Z,95525.13
2018-09-10T01:00:50.586Z,95526.90
2018-09-10T01:03:18.935Z,95529.19
2018-09-10T01:05:47.308Z,95526.97
2018-09-10T01:08:15.628Z,95534.50
2018-09-10T01:10:44.010Z,95532.58
2018-09-10T01:13:12.394Z,95530.25
2018-09-10T01:15:40.781Z,95532.13
2018-09-10T01:18:09.152Z,95530.98
2018-09-10T01:20:37.563Z,95527.84
2018-09-10T01:23:05.907Z,95522.13
2018-09-10T01:25:34.295Z,95522.84
2018-09-10T01:28:02.771Z,95518.41
2018-09-10T01:30:31.136Z,95518.64
2018-09-10T01:32:59.769Z,95516.03
2018-09-10T01:35:32.622Z,95516.36
2018-09-10T01:38:00.978Z,95525.51
2018-09-10T01:40:29.362Z,95518.81
2018-09-10T01:42:57.743Z,95518.97
2018-09-10T01:45:26.121Z,95510.51
2018-09-10T01:47:54.530Z,95513.30
2018-09-10T01:50:22.923Z,95517.22
2018-09-10T01:52:51.235Z,95512.03
2018-09-10T01:55:19.627Z,95518.39
2018-09-10T01:57:48.016Z,95514.71
2018-09-10T02:00:16.539Z,95516.83
2018-09-10T02:02:44.859Z,95522.92
2018-09-10T02:05:13.271Z,95517.36
2018-09-10T02:07:41.595Z,95515.00
2018-09-10T02:10:09.895Z,95515.86
2018-09-10T02:12:38.331Z,95517.39
2018-09-10T02:15:06.918Z,95510.58
2018-09-10T02:17:35.231Z,95507.58
2018-09-10T02:20:03.619Z,95510.38
2018-09-10T02:22:31.979Z,95508.58
2018-09-10T02:25:00.250Z,95513.52
2018-09-10T02:27:28.621Z,95511.45
2018-09-10T02:29:56.938Z,95505.59
2018-09-10T02:32:25.328Z,95504.75
2018-09-10T02:34:53.645Z,95509.17
2018-09-10T02:37:22.022Z,95501.92
2018-09-10T02:39:50.406Z,95497.89
2018-09-10T02:42:18.767Z,95502.45
2018-09-10T02:44:47.110Z,95502.30
2018-09-10T02:47:15.414Z,95499.33
2018-09-10T02:49:43.750Z,95502.70
2018-09-10T02:52:12.143Z,95506.67
2018-09-10T02:54:40.538Z,95503.82
2018-09-10T02:57:09.122Z,95515.02
2018-09-10T02:59:37.449Z,95510.19
2018-09-10T03:02:05.911Z,95499.89
2018-09-10T03:04:34.307Z,95498.02
2018-09-10T03:07:02.744Z,95499.02
2018-09-10T03:09:31.138Z,95499.94
2018-09-10T03:11:59.462Z,95493.65
2018-09-10T03:14:27.789Z,95494.09
2018-09-10T03:16:56.133Z,95489.42
2018-09-10T03:19:24.486Z,95487.06
2018-09-10T03:21:52.795Z,95485.02
2018-09-10T03:24:21.175Z,95486.95
2018-09-10T03:26:49.523Z,95480.81
2018-09-10T03:29:17.849Z,95478.23
2018-09-10T03:31:46.176Z,95484.05
2018-09-10T03:34:14.510Z,95475.71
2018-09-10T03:36:42.927Z,95476.30
2018-09-10T03:39:11.631Z,95479.50
2018-09-10T03:41:39.980Z,95469.38
2018-09-10T03:44:08.363Z,95479.46
2018-09-10T03:46:36.742Z,95479.92
2018-09-10T03:49:05.170Z,95484.25
2018-09-10T03:51:33.635Z,95482.94
2018-09-10T03:54:02.206Z,95483.73
2018-09-10T03:56:30.711Z,95495.56
2018-09-10T03:58:59.012Z,95493.30
2018-09-10T04:01:27.420Z,95487.64
2018-09-10T04:03:55.755Z,95489.67
2018-09-10T04:06:24.150Z,95484.48
2018-09-10T04:08:52.534Z,95477.09
2018-09-10T04:11:20.875Z,95471.08
2018-09-10T04:13:49.324Z,95471.31
2018-09-10T04:16:17.607Z,95474.48
2018-09-10T04:18:46.490Z,95477.67
2018-09-10T04:21:14.970Z,95483.13
2018-09-10T04:23:43.339Z,95483.63
2018-09-10T04:26:11.799Z,95479.55
2018-09-10T04:28:40.215Z,95478.39
2018-09-10T04:31:08.620Z,95476.01
2018-09-10T04:33:37.092Z,95476.07
2018-09-10T04:36:05.652Z,95479.95
2018-09-10T04:38:34.060Z,95484.21
2018-09-10T04:41:02.491Z,95488.95
2018-09-10T04:43:30.988Z,95492.53
2018-09-10T04:45:59.359Z,95488.52
2018-09-10T04:48:27.778Z,95493.97
2018-09-10T04:50:56.209Z,95498.44
2018-09-10T04:53:24.847Z,95499.31
2018-09-10T04:55:53.198Z,95498.87
2018-09-10T04:58:21.868Z,95493.52
2018-09-10T05:00:50.436Z,95504.78
2018-09-10T05:03:18.859Z,95497.90
2018-09-10T05:05:47.250Z,95505.73
2018-09-10T05:08:15.651Z,95502.66
2018-09-10T05:10:44.055Z,95503.11
2018-09-10T05:13:12.505Z,95500.98
2018-09-10T05:15:40.978Z,95508.64
2018-09-10T05:18:09.393Z,95510.70
2018-09-10T05:20:37.779Z,95506.95
2018-09-10T05:23:06.211Z,95509.25
2018-09-10T05:25:34.652Z,95509.09
2018-09-10T05:28:03.100Z,95517.39
2018-09-10T05:30:31.454Z,95519.53
2018-09-10T05:33:00.706Z,95511.88
2018-09-10T05:35:29.398Z,95523.95
2018-09-10T05:37:57.839Z,95514.29
2018-09-10T05:40:26.324Z,95517.66
2018-09-10T05:42:54.668Z,95522.85
2018-09-10T05:45:23.062Z,95524.31
2018-09-10T05:47:51.421Z,95536.40
2018-09-10T05:50:19.926Z,95532.52
2018-09-10T05:52:48.239Z,95534.91
2018-09-10T05:55:16.584Z,95527.19
2018-09-10T05:57:44.933Z,95529.67
2018-09-10T06:00:13.374Z,95524.46
2018-09-10T06:02:41.736Z,95518.19
2018-09-10T06:05:10.059Z,95520.97
2018-09-10T06:07:38.437Z,95513.78
2018-09-10T06:10:07.535Z,95513.48
2018-09-10T06:12:35.917Z,95510.81
2018-09-10T06:15:04.342Z,95520.17
2018-09-10T06:17:32.656Z,95521.08
2018-09-10T06:20:01.068Z,95523.36
2018-09-10T06:22:29.818Z,95532.51
2018-09-10T06:24:59.150Z,95531.12
2018-09-10T06:27:27.548Z,95534.62
2018-09-10T06:29:55.967Z,95532.81
2018-09-10T06:32:24.391Z,95531.03
2018-09-10T06:34:52.729Z,95529.16
2018-09-10T06:37:21.100Z,95529.86
2018-09-10T06:39:49.528Z,95526.51
2018-09-10T06:42:18.012Z,95529.80
2018-09-10T06:44:46.418Z,95527.81
2018-09-10T06:47:14.860Z,95532.81
2018-09-10T06:49:43.288Z,95531.97
2018-09-10T06:52:11.746Z,95526.06
2018-09-10T06:54:40.168Z,95529.05
2018-09-10T06:57:08.607Z,95530.59
2018-09-10T06:59:37.111Z,95530.01
2018-09-10T07:02:05.620Z,95533.81
2018-09-10T07:04:34.051Z,95539.83
2018-09-10T07:07:02.471Z,95532.47
2018-09-10T07:09:30.868Z,95543.86
2018-09-10T07:11:59.234Z,95537.13
2018-09-10T07:14:27.629Z,95538.66
2018-09-10T07:16:55.931Z,95535.51
2018-09-10T07:19:24.358Z,95538.69
2018-09-10T07:21:52.962Z,95538.19
2018-09-10T07:24:21.368Z,95541.31
2018-09-10T07:26:49.844Z,95542.70
2018-09-10T07:29:18.250Z,95548.11
2018-09-10T07:31:46.643Z,95551.33
2018-09-10T07:34:15.014Z,95550.16
2018-09-10T07:36:43.368Z,95532.58
2018-09-10T07:39:12.538Z,95525.09
2018-09-10T07:41:40.939Z,95529.11
2018-09-10T07:44:09.602Z,95538.13
2018-09-10T07:46:38.308Z,95537.26
2018-09-10T07:49:06.854Z,95541.52
2018-09-10T07:51:35.223Z,95536.97
2018-09-10T07:54:03.625Z,95537.71
2018-09-10T07:56:32.111Z,95533.00
2018-09-10T07:59:00.514Z,95524.45
2018-09-10T08:01:29.020Z,95522.92
2018-09-10T08:03:57.411Z,95518.71
2018-09-10T08:06:25.834Z,95519.33
2018-09-10T08:08:54.191Z,95514.59
2018-09-10T08:11:22.595Z,95518.48
2018-09-10T08:13:51.070Z,95521.14
2018-09-10T08:16:19.488Z,95520.11
2018-09-10T08:18:47.896Z,95513.92
2018-09-10T08:21:16.333Z,95515.69
2018-09-10T08:23:45.778Z,95509.75
2018-09-10T08:26:14.360Z,95505.08
2018-09-10T08:28:42.815Z,95501.09
2018-09-10T08:31:11.249Z,95499.27
2018-09-10T08:33:39.796Z,95492.44
2018-09-10T08:36:08.194Z,95484.44
2018-09-10T08:38:36.632Z,95500.45
2018-09-10T08:41:05.089Z,95493.56
2018-09-10T08:43:33.491Z,95505.98
2018-09-10T08:46:01.922Z,95497.22
2018-09-10T08:48:30.403Z,95511.36
2018-09-10T08:50:58.727Z,95507.63
2018-09-10T08:53:27.075Z,95512.98
2018-09-10T08:55:55.761Z,95514.81
2018-09-10T08:58:23.874Z,95519.09
2018-09-10T09:00:52.269Z,95532.45
2018-09-10T09:03:20.678Z,95534.60
2018-09-10T09:05:49.142Z,95534.03
2018-09-10T09:08:17.737Z,95533.56
2018-09-10T09:10:46.095Z,95536.09
2018-09-10T09:13:14.450Z,95535.00
2018-09-10T09:15:42.824Z,95534.14
2018-09-10T09:18:11.179Z,95539.30
2018-09-10T09:20:39.522Z,95537.12
2018-09-10T09:23:07.890Z,95536.48
2018-09-10T09:25:36.301Z,95543.20
2018-09-10T09:28:04.671Z,95544.48
2018-09-10T09:30:33.087Z,95537.41
2018-09-10T09:33:01.489Z,95529.74
2018-09-10T09:35:36.026Z,95528.78
2018-09-10T09:38:10.403Z,95521.03
2018-09-10T09:40:44.023Z,95524.85
2018-09-10T09:43:17.819Z,95530.67
2018-09-10T09:45:51.343Z,95526.17
2018-09-10T09:48:19.826Z,95511.96
2018-09-10T09:50:48.229Z,95516.22
2018-09-10T09:53:16.608Z,95520.67
2018-09-10T09:55:44.979Z,95511.89
2018-09-10T09:58:13.390Z,95515.69
2018-09-10T10:00:47.006Z,95517.66
2018-09-10T10:03:15.773Z,95517.45
2018-09-10T10:05:44.667Z,95517.27
2018-09-10T10:08:13.091Z,95518.92
2018-09-10T10:10:41.461Z,95521.50
2018-09-10T10:13:10.000Z,95524.55
2018-09-10T10:15:38.416Z,95528.30
2018-09-10T10:18:06.960Z,95525.80
2018-09-10T10:20:35.982Z,95511.55
2018-09-10T10:23:04.382Z,95524.55
2018-09-10T10:25:32.812Z,95517.71
2018-09-10T10:28:01.236Z,95535.11
2018-09-10T10:30:29.641Z,95531.34
2018-09-10T10:32:58.039Z,95525.72
2018-09-10T10:35:26.469Z,95526.75
2018-09-10T10:37:54.838Z,95519.98
2018-09-10T10:40:23.299Z,95528.52
2018-09-10T10:42:51.743Z,95533.67
2018-09-10T10:45:20.141Z,95538.16
2018-09-10T10:47:48.567Z,95529.77
2018-09-10T10:50:17.014Z,95540.36
2018-09-10T10:52:45.698Z,95527.54
2018-09-10T10:55:14.069Z,95532.86
2018-09-10T10:57:42.620Z,95527.84
2018-09-10T11:00:11.162Z,95532.03
2018-09-10T11:02:39.624Z,95537.09
2018-09-10T11:05:08.035Z,95541.59
2018-09-10T11:07:36.451Z,95548.94
2018-09-10T11:10:05.290Z,95534.84
2018-09-10T11:12:33.690Z,95535.69
2018-09-10T11:15:02.082Z,95538.86
2018-09-10T11:17:31.084Z,95543.51
2018-09-10T11:19:59.591Z,95537.71
2018-09-10T11:22:28.243Z,95542.52
2018-09-10T11:24:56.559Z,95540.50
2018-09-10T11:27:25.178Z,95544.58
2018-09-10T11:29:53.665Z,95544.22
2018-09-10T11:32:22.138Z,95546.84
2018-09-10T11:34:50.575Z,95547.55
2018-09-10T11:37:18.943Z,95543.80
2018-09-10T11:39:47.307Z,95542.92
2018-09-10T11:42:15.647Z,95542.07
2018-09-10T11:44:43.978Z,95545.77
2018-09-10T11:47:12.365Z,95548.53
2018-09-10T11:49:40.846Z,95541.94
2018-09-10T11:52:09.327Z,95537.94
2018-09-10T11:54:37.678Z,95527.95
2018-09-10T11:57:06.063Z,95533.03
2018-09-10T11:59:34.396Z,95533.57
2018-09-10T12:02:02.885Z,95529.42
2018-09-10T12:04:31.173Z,95530.36
2018-09-10T12:06:59.614Z,95526.50
2018-09-10T12:09:27.954Z,95523.95
2018-09-10T12:11:56.372Z,95511.89
2018-09-10T12:14:24.767Z,95501.45
2018-09-10T12:16:53.207Z,95499.34
2018-09-10T12:19:21.578Z,95517.95
2018-09-10T12:21:50.098Z,95534.27
2018-09-10T12:24:18.497Z,95532.83
2018-09-10T12:26:46.965Z,95521.70
2018-09-10T12:29:15.345Z,95526.50
2018-09-10T12:31:43.750Z,95531.06
2018-09-10T12:34:12.178Z,95537.09
2018-09-10T12:36:40.569Z,95542.05
2018-09-10T12:39:10.331Z,95543.64
2018-09-10T12:41:38.798Z,95535.70
2018-09-10T12:44:07.695Z,95533.95
2018-09-10T12:46:36.526Z,95534.01
2018-09-10T12:49:04.904Z,95535.64
2018-09-10T12:51:33.362Z,95535.91
2018-09-10T12:54:01.782Z,95537.23
2018-09-10T12:56:30.216Z,95551.02
2018-09-10T12:58:58.668Z,95552.00
2018-09-10T13:01:27.013Z,95560.05
2018-09-10T13:03:55.435Z,95561.70
2018-09-10T13:06:23.859Z,95561.99
2018-09-10T13:08:52.558Z,95569.68
2018-09-10T13:11:20.962Z,95570.61
2018-09-10T13:13:49.532Z,95585.27
2018-09-10T13:16:17.924Z,95585.11
2018-09-10T13:18:46.345Z,95584.03
2018-09-10T13:21:14.766Z,95598.92
2018-09-10T13:23:43.212Z,95604.14
2018-09-10T13:26:11.675Z,95606.74
2018-09-10T13:28:40.084Z,95607.34
2018-09-10T13:31:08.471Z,95615.24
2018-09-10T13:33:36.862Z,95619.59
2018-09-10T13:36:05.250Z,95616.19
2018-09-10T13:38:33.720Z,95617.48
2018-09-10T13:41:02.199Z,95618.42
2018-09-10T13:43:30.577Z,95619.23
2018-09-10T13:45:58.973Z,95612.45
2018-09-10T13:48:27.429Z,95612.86
2018-09-10T13:50:55.861Z,95598.94
2018-09-10T13:53:24.277Z,95589.13
2018-09-10T13:55:52.652Z,95579.55
2018-09-10T13:58:21.249Z,95578.02
2018-09-10T14:00:49.674Z,95577.75
2018-09-10T14:03:18.050Z,95572.87
2018-09-10T14:05:46.443Z,95579.90
2018-09-10T14:08:14.854Z,95575.59
2018-09-10T14:10:43.288Z,95577.41
2018-09-10T14:13:11.745Z,95569.38
2018-09-10T14:15:40.136Z,95569.31
2018-09-10T14:18:08.797Z,95563.60
2018-09-10T14:20:37.199Z,95563.97
2018-09-10T14:23:05.613Z,95565.81
2018-09-10T14:25:34.015Z,95573.09
2018-09-10T14:28:02.448Z,95579.56
2018-09-10T14:30:30.910Z,95584.59
2018-09-10T14:32:59.232Z,95583.28
2018-09-10T14:35:27.561Z,95576.27
2018-09-10T14:37:55.930Z,95570.05
2018-09-10T14:40:24.334Z,95575.38
2018-09-10T14:42:52.783Z,95568.86
2018-09-10T14:45:21.172Z,95559.98
2018-09-10T14:47:49.567Z,95567.50
2018-09-10T14:50:18.250Z,95575.89
2018-09-10T14:52:46.630Z,95577.17
2018-09-10T14:55:15.025Z,95584.69
2018-09-10T14:57:43.384Z,95575.74
2018-09-10T15:00:17.066Z,95581.17
2018-09-10T15:02:45.352Z,95576.73
2018-09-10T15:05:13.656Z,95581.50
2018-09-10T15:07:42.222Z,95598.44
2018-09-10T15:10:10.484Z,95591.25
2018-09-10T15:12:38.879Z,95583.62
2018-09-10T15:15:07.210Z,95584.89
2018-09-10T15:17:35.794Z,95591.58
2018-09-10T15:20:04.211Z,95592.61
2018-09-10T15:22:32.647Z,95597.87
2018-09-10T15:25:01.048Z,95610.33
2018-09-10T15:27:29.460Z,95604.88
2018-09-10T15:29:57.878Z,95600.02
2018-09-10T15:32:26.240Z,95606.23
2018-09-10T15:34:54.838Z,95608.99
2018-09-10T15:37:23.192Z,95609.11
2018-09-10T15:39:51.686Z,95603.84
2018-09-10T15:42:20.105Z,95599.34
2018-09-10T15:44:48.553Z,95608.58
2018-09-10T15:47:16.971Z,95615.73
2018-09-10T15:49:45.380Z,95610.59
2018-09-10T15:52:13.810Z,95614.05
2018-09-10T15:54:42.299Z,95617.61
2018-09-10T15:57:10.874Z,95614.50
2018-09-10T15:59:39.337Z,95626.09
2018-09-10T16:02:07.843Z,95620.45
2018-09-10T16:04:36.241Z,95633.93
2018-09-10T16:07:04.600Z,95640.70
2018-09-10T16:09:33.012Z,95635.34
2018-09-10T16:12:01.410Z,95639.05
2018-09-10T16:14:29.799Z,95639.26
2018-09-10T16:16:58.255Z,95627.00
2018-09-10T16:19:26.695Z,95612.72
2018-09-10T16:21:55.119Z,95615.82
2018-09-10T16:24:23.535Z,95617.59
2018-09-10T16:26:51.938Z,95617.70
2018-09-10T16:29:20.342Z,95633.27
2018-09-10T16:31:48.763Z,95633.66
2018-09-10T16:34:17.201Z,95628.36
2018-09-10T16:36:45.610Z,95615.56
2018-09-10T16:39:14.005Z,95610.51
2018-09-10T16:41:42.423Z,95602.75
2018-09-10T16:44:10.811Z,95607.83
2018-09-10T16:46:39.226Z,95606.98
2018-09-10T16:49:07.712Z,95610.16
2018-09-10T16:51:36.090Z,95614.61
2018-09-10T16:54:04.558Z,95616.34
2018-09-10T16:56:32.899Z,95610.92
2018-09-10T16:59:01.342Z,95603.25
2018-09-10T17:01:29.763Z,95621.00
2018-09-10T17:03:58.136Z,95622.12
2018-09-10T17:06:26.844Z,95626.51
2018-09-10T17:08:55.210Z,95618.31
2018-09-10T17:11:23.606Z,95604.06
2018-09-10T17:13:51.990Z,95596.43
2018-09-10T17:16:27.085Z,95586.30
2018-09-10T17:18:55.466Z,95597.88
2018-09-10T17:21:23.864Z,95598.44
2018-09-10T17:23:52.274Z,95610.71
2018-09-10T17:26:20.731Z,95635.46
2018-09-10T17:28:49.188Z,95641.22
2018-09-10T17:31:17.602Z,95641.53
2018-09-10T17:33:46.014Z,95635.12
2018-09-10T17:36:14.474Z,95630.64
2018-09-10T17:38:42.876Z,95628.58
2018-09-10T17:41:11.322Z,95627.48
2018-09-10T17:43:39.678Z,95614.47
2018-09-10T17:46:08.959Z,95610.65
2018-09-10T17:48:37.312Z,95616.56
2018-09-10T17:51:05.594Z,95620.78
2018-09-10T17:53:33.978Z,95614.48
2018-09-10T17:56:02.306Z,95623.16
2018-09-10T17:58:30.720Z,95631.57
2018-09-10T18:00:59.084Z,95630.61
2018-09-10T18:03:27.484Z,95624.33
2018-09-10T18:05:55.828Z,95636.25
2018-09-10T18:08:24.194Z,95649.02
2018-09-10T18:10:52.559Z,95649.67
2018-09-10T18:13:21.018Z,95654.96
2018-09-10T18:15:49.257Z,95656.79
2018-09-10T18:18:17.781Z,95651.28
2018-09-10T18:20:46.120Z,95661.72
2018-09-10T18:23:14.442Z,95664.11
2018-09-10T18:25:42.774Z,95664.28
2018-09-10T18:28:11.184Z,95671.34
2018-09-10T18:30:39.630Z,95679.84
2018-09-10T18:33:08.035Z,95683.59
2018-09-10T18:35:36.433Z,95681.34
2018-09-10T18:38:04.823Z,95686.03
2018-09-10T18:40:33.514Z,95687.66
2018-09-10T18:43:02.288Z,95686.52
2018-09-10T18:45:30.795Z,95684.86
2018-09-10T18:48:06.473Z,95689.75
2018-09-10T18:50:34.928Z,95690.09
2018-09-10T18:53:03.432Z,95689.94
2018-09-10T18:55:32.015Z,95688.63
2018-09-10T18:58:00.627Z,95692.59
2018-09-10T19:00:29.046Z,95687.65
2018-09-10T19:02:57.555Z,95689.51
2018-09-10T19:05:26.005Z,95692.55
2018-09-10T19:07:55.381Z,95690.06
2018-09-10T19:10:23.800Z,95687.37
2018-09-10T19:12:53.314Z,95679.60
2018-09-10T19:15:22.599Z,95673.84
2018-09-10T19:17:51.044Z,95665.99
2018-09-10T19:20:20.473Z,95668.80
2018-09-10T19:22:50.591Z,95659.59
2018-09-10T19:25:19.055Z,95653.45
2018-09-10T19:27:47.484Z,95646.64
2018-09-10T19:30:15.955Z,95628.69
2018-09-10T19:32:44.558Z,95625.02
2018-09-10T19:35:12.963Z,95617.97
2018-09-10T19:37:41.490Z,95612.55
2018-09-10T19:40:09.867Z,95612.58
2018-09-10T19:42:38.332Z,95610.60
2018-09-10T19:45:06.878Z,95614.94
2018-09-10T19:47:35.310Z,95622.05
2018-09-10T19:50:03.858Z,95618.03
2018-09-10T19:52:32.261Z,95624.28
2018-09-10T19:55:00.634Z,95628.09
2018-09-10T19:57:29.028Z,95628.05
2018-09-10T19:59:57.574Z,95631.38
2018-09-10T20:02:26.234Z,95637.38
2018-09-10T20:04:54.658Z,95641.02
2018-09-10T20:07:23.071Z,95640.23
2018-09-10T20:09:51.586Z,95641.02
2018-09-10T20:12:20.055Z,95632.49
2018-09-10T20:14:48.439Z,95632.76
2018-09-10T20:17:16.904Z,95614.53
2018-09-10T20:19:45.278Z,95614.06
2018-09-10T20:22:15.144Z,95609.37
2018-09-10T20:24:43.604Z,95616.09
2018-09-10T20:27:12.051Z,95607.67
2018-09-10T20:29:40.454Z,95607.34
2018-09-10T20:32:09.768Z,95608.52
2018-09-10T20:34:38.110Z,95606.57
2018-09-10T20:37:06.524Z,95601.10
2018-09-10T20:39:34.925Z,95602.36
2018-09-10T20:42:03.212Z,95591.02
2018-09-10T20:44:31.597Z,95594.48
2018-09-10T20:46:59.915Z,95597.72
2018-09-10T20:49:28.225Z,95611.78
2018-09-10T20:51:56.583Z,95624.75
2018-09-10T20:54:24.905Z,95624.75
2018-09-10T20:56:53.231Z,95636.13
2018-09-10T20:59:21.579Z,95628.23
2018-09-10T21:01:49.947Z,95618.27
2018-09-10T21:04:18.298Z,95615.75
2018-09-10T21:06:46.567Z,95630.84
2018-09-10T21:09:14.936Z,95636.91
2018-09-10T21:11:43.270Z,95637.86
2018-09-10T21:14:11.652Z,95639.09
2018-09-10T21:16:39.973Z,95644.64
2018-09-10T21:19:08.367Z,95643.56
2018-09-10T21:21:36.766Z,95645.66
2018-09-10T21:24:05.208Z,95643.08
2018-09-10T21:26:33.598Z,95651.03
2018-09-10T21:29:01.984Z,95646.50
2018-09-10T21:31:30.383Z,95653.81
2018-09-10T21:33:58.650Z,95641.70
2018-09-10T21:36:27.066Z,95635.20
2018-09-10T21:38:55.434Z,95632.48
2018-09-10T21:41:23.859Z,95629.71
2018-09-10T21:43:52.267Z,95624.91
2018-09-10T21:46:20.637Z,95624.04
2018-09-10T21:48:49.051Z,95631.05
2018-09-10T21:51:17.453Z,95640.05
2018-09-10T21:53:45.936Z,95641.00
2018-09-10T21:56:14.283Z,95643.96
2018-09-10T21:58:42.619Z,95639.73
2018-09-10T22:01:11.026Z,95636.84
2018-09-10T22:03:39.431Z,95621.68
2018-09-10T22:06:07.834Z,95621.20
2018-09-10T22:08:36.187Z,95621.17
2018-09-10T22:11:04.606Z,95624.91
2018-09-10T22:13:32.975Z,95621.53
2018-09-10T22:16:01.384Z,95630.22
2018-09-10T22:18:29.733Z,95621.42
2018-09-10T22:20:58.090Z,95608.66
2018-09-10T22:23:26.390Z,95611.59
2018-09-10T22:25:54.759Z,95610.19
2018-09-10T22:28:23.021Z,95612.71
2018-09-10T22:30:51.442Z,95616.16
2018-09-10T22:33:19.787Z,95612.63
2018-09-10T22:35:48.197Z,95613.20
2018-09-10T22:38:16.754Z,95604.36
2018-09-10T22:40:45.007Z,95602.86
2018-09-10T22:43:13.341Z,95590.83
2018-09-10T22:45:41.674Z,95589.56
2018-09-10T22:48:10.088Z,95582.41
2018-09-10T22:50:38.451Z,95591.67
2018-09-10T22:53:06.715Z,95575.13
2018-09-10T22:55:35.171Z,95577.55
2018-09-10T22:58:03.427Z,95577.73
2018-09-10T23:00:31.831Z,95585.89
2018-09-10T23:03:00.208Z,95585.75
2018-09-10T23:05:28.481Z,95598.77
2018-09-10T23:07:56.865Z,95595.14
2018-09-10T23:10:25.277Z,95593.17
2018-09-10T23:12:53.799Z,95594.22
2018-09-10T23:15:22.181Z,95602.09
2018-09-10T23:17:50.620Z,95606.09
2018-09-10T23:20:19.042Z,95611.21
2018-09-10T23:22:47.452Z,95605.92
2018-09-10T23:25:15.885Z,95614.80
2018-09-10T23:27:44.378Z,95612.72
2018-09-10T23:30:12.884Z,95616.33
2018-09-10T23:32:41.279Z,95612.56
2018-09-10T23:35:09.685Z,95617.38
2018-09-10T23:37:38.102Z,95616.30
2018-09-10T23:40:06.618Z,95616.39
2018-09-10T23:42:35.028Z,95610.06
2018-09-10T23:45:03.450Z,95604.16
2018-09-10T23:47:31.914Z,95610.98
2018-09-10T23:50:00.334Z,95605.42
2018-09-10T23:52:28.782Z,95609.39
2018-09-10T23:54:57.223Z,95610.81
2018-09-10T23:57:25.647Z,95605.80
2018-09-10T23:59:54.418Z,95611.53
